Time;durP1;ratioP1;P1;durP2;ratioP2;P2;SDS_P1;SDS_P2;PMS_P1;PMS_P2;Temp;Humidity;BMP_temperature;BMP_pressure;BME280_temperature;BME280_humidity;BME280_pressure;Samples;Min_cycle;Max_cycle;Signal;HPM_P1;HPM_P2
2022/08/12 00:44:25;;;;;;;1.98;1.70;;;17.90;71.90;;;17.83;51.34;97398.78;4999527;28;20120;-49
2022/08/12 00:46:59;;;;;;;2.42;1.42;;;17.90;72.80;;;17.81;51.29;97398.03;5017093;28;20136;-50
2022/08/12 00:49:28;;;;;;;2.38;1.40;;;17.90;72.70;;;17.78;51.57;97389.38;5015622;28;20452;-48
2022/08/12 00:52:10;;;;;;;3.65;1.70;;;17.80;73.00;;;17.74;51.90;97386.06;5013962;28;20332;-49
2022/08/12 00:54:42;;;;;;;2.33;1.60;;;17.80;73.20;;;17.72;52.46;97395.97;5015307;28;20022;-48
2022/08/12 00:57:22;;;;;;;1.90;1.60;;;17.80;73.50;;;17.69;52.48;97396.16;5013121;28;20038;-49
2022/08/12 01:00:11;;;;;;;5.63;1.70;;;17.80;74.40;;;17.63;52.78;97389.44;5013798;28;20294;-48
2022/08/12 01:02:45;;;;;;;2.75;1.80;;;17.70;73.90;;;17.63;52.67;97391.25;5017134;28;20049;-49
2022/08/12 01:13:48;;;;;;;2.03;1.60;;;17.50;74.60;;;17.40;53.90;97393.59;5014612;28;20036;-48
2022/08/12 01:16:21;;;;;;;2.25;1.70;;;17.50;75.10;;;17.30;54.31;97384.47;5013743;28;20109;-47
2022/08/12 01:18:50;;;;;;;3.35;1.88;;;17.40;75.40;;;17.29;55.01;97391.63;5013741;28;20028;-47
2022/08/12 01:22:22;;;;;;;3.63;1.98;;;17.40;75.80;;;17.11;54.96;97371.50;5014939;28;20045;-48
2022/08/12 01:25:09;;;;;;;2.03;1.60;;;17.30;75.80;;;17.22;54.98;97398.31;4956431;28;20190;-49
2022/08/12 01:27:39;;;;;;;2.70;1.88;;;17.30;75.90;;;17.20;55.28;97388.72;4999403;28;20534;-50
2022/08/12 01:30:08;;;;;;;3.20;2.08;;;17.20;76.10;;;17.15;55.87;97383.66;5013078;28;20431;-49
2022/08/12 01:32:38;;;;;;;1.95;1.60;;;17.20;76.70;;;17.08;56.37;97385.84;4999364;28;20041;-47
2022/08/12 01:35:11;;;;;;;2.22;1.65;;;17.10;77.00;;;17.04;56.67;97381.69;5017545;28;20127;-50
2022/08/12 01:37:56;;;;;;;2.65;2.10;;;17.10;77.30;;;17.01;56.70;97381.00;5033827;22;20049;-49
2022/08/12 01:40:29;;;;;;;4.78;1.90;;;17.00;77.30;;;17.00;56.60;97381.97;4995331;28;20120;-50
2022/08/12 01:43:06;;;;;;;4.55;2.15;;;17.00;77.30;;;16.97;56.54;97378.53;5014515;28;20034;-48
2022/08/12 01:45:33;;;;;;;2.53;1.73;;;17.00;77.30;;;16.94;56.77;97376.09;5012951;28;20041;-49
2022/08/12 01:48:33;;;;;;;2.53;1.65;;;17.00;77.50;;;16.91;57.15;97376.28;4985699;28;20107;-48
2022/08/12 01:51:20;;;;;;;2.38;1.90;;;17.00;77.70;;;16.89;57.93;97377.34;4992598;28;20761;-48
2022/08/12 01:54:06;;;;;;;2.33;1.70;;;16.90;78.40;;;16.87;58.20;97377.44;4980255;28;20030;-49
2022/08/12 01:57:10;;;;;;;2.35;1.75;;;16.90;78.60;;;16.88;58.20;97371.13;4995187;28;20030;-46
2022/08/12 01:59:49;;;;;;;2.13;1.67;;;16.90;78.70;;;16.90;57.91;97369.22;4980600;28;20481;-50
2022/08/12 02:02:25;;;;;;;2.53;1.52;;;16.90;78.50;;;16.90;58.35;97363.88;4978168;28;20501;-48
2022/08/12 02:11:35;;;;;;;1.45;1.35;;;16.90;78.80;;;16.83;58.55;97367.91;4998193;28;20092;-47
2022/08/12 02:14:42;;;;;;;2.72;1.75;;;16.90;78.90;;;16.77;58.77;97368.25;4979010;28;20022;-47
2022/08/12 02:17:43;;;;;;;3.38;1.70;;;16.80;79.00;;;16.71;59.34;97379.31;4995279;28;20038;-48
2022/08/12 02:20:45;;;;;;;2.88;1.60;;;16.80;79.50;;;16.62;60.82;97378.06;4993987;28;20030;-49
2022/08/12 02:23:13;;;;;;;2.03;1.38;;;16.70;80.40;;;16.54;60.97;97375.84;4978888;28;20494;-47
2022/08/12 02:25:54;;;;;;;3.90;1.90;;;16.60;81.60;;;16.51;61.79;97368.09;4995976;28;20490;-48
2022/08/12 02:28:20;;;;;;;1.95;1.60;;;16.60;81.40;;;16.51;61.48;97370.75;4992545;28;20533;-47
2022/08/12 02:30:46;;;;;;;1.90;1.70;;;16.60;81.20;;;16.49;61.80;97362.00;4991261;28;20035;-48
2022/08/12 02:33:16;;;;;;;2.00;1.70;;;16.60;81.40;;;16.48;62.15;97368.25;4989526;28;20354;-47
2022/08/12 02:35:43;;;;;;;2.63;1.83;;;16.60;81.80;;;16.45;62.14;97362.25;4975257;28;20029;-47
2022/08/12 02:38:11;;;;;;;2.17;1.67;;;16.50;81.60;;;16.42;62.65;97364.16;4973690;28;20077;-48
2022/08/12 02:40:43;;;;;;;2.25;1.80;;;16.50;82.20;;;16.43;62.48;97362.34;4993045;28;20075;-48
2022/08/12 02:43:26;;;;;;;3.67;1.67;;;16.50;82.00;;;16.40;62.61;97363.41;4990883;28;20457;-48
2022/08/12 02:45:59;;;;;;;2.53;2.00;;;16.50;82.20;;;16.39;62.83;97367.00;4976056;28;20070;-49
2022/08/12 02:48:39;;;;;;;2.40;1.80;;;16.50;82.30;;;16.34;63.42;97349.63;4994742;28;20072;-47
2022/08/12 02:51:08;;;;;;;3.30;1.80;;;16.40;82.80;;;16.30;63.22;97348.09;4991962;28;20512;-49
2022/08/12 02:53:36;;;;;;;2.50;1.77;;;16.40;82.60;;;16.35;62.86;97359.31;4993237;28;20112;-46
2022/08/12 02:56:04;;;;;;;2.67;1.77;;;16.40;82.40;;;16.34;62.84;97350.47;4992231;28;20041;-45
2022/08/12 02:58:32;;;;;;;5.35;1.85;;;16.40;82.50;;;16.33;63.09;97363.84;4996818;28;20026;-47
2022/08/12 03:01:02;;;;;;;2.83;1.80;;;16.40;82.70;;;16.30;63.38;97354.28;4998501;28;20026;-49
2022/08/12 03:03:31;;;;;;;2.30;1.88;;;16.40;82.90;;;16.28;63.56;97352.66;4976622;28;20375;-48
2022/08/12 03:06:02;;;;;;;2.80;1.95;;;16.30;82.90;;;16.23;63.29;97353.78;4992404;28;20482;-50
2022/08/12 03:08:34;;;;;;;4.95;1.70;;;16.30;82.90;;;16.21;63.59;97349.50;4992049;28;20122;-51
2022/08/12 03:11:09;;;;;;;2.40;1.73;;;16.30;83.00;;;16.20;63.28;97353.09;4994613;28;20088;-52
2022/08/12 03:13:38;;;;;;;3.10;1.80;;;16.30;82.90;;;16.17;63.12;97348.00;4974420;28;20025;-48
2022/08/12 03:16:06;;;;;;;3.47;1.80;;;16.20;83.00;;;16.13;64.08;97349.97;4991673;28;20377;-49
2022/08/12 03:18:33;;;;;;;3.00;1.60;;;16.20;83.50;;;16.09;64.14;97350.25;4971513;28;20037;-48
2022/08/12 03:21:00;;;;;;;2.22;1.70;;;16.20;83.60;;;16.03;64.08;97346.16;4992351;28;20155;-47
2022/08/12 03:23:29;;;;;;;4.10;2.15;;;16.10;83.60;;;16.02;63.97;97355.94;4988303;28;20077;-48
2022/08/12 03:25:55;;;;;;;2.97;1.90;;;16.10;83.60;;;15.99;64.11;97356.13;4994084;28;20289;-48
2022/08/12 03:31:09;;;;;;;2.35;1.80;;;16.10;83.60;;;15.94;64.07;97346.72;4992569;28;20037;-48
2022/08/12 03:33:43;;;;;;;3.70;1.85;;;16.00;83.70;;;15.89;64.14;97356.75;4992408;28;20029;-50
2022/08/12 03:36:10;;;;;;;2.65;1.65;;;16.00;83.80;;;15.84;64.72;97357.00;4994266;28;20705;-45
2022/08/12 03:38:41;;;;;;;2.53;1.65;;;15.90;84.10;;;15.81;64.52;97354.56;4995807;28;20124;-51
2022/08/12 03:41:36;;;;;;;2.78;1.80;;;15.90;84.10;;;15.74;65.16;97351.41;4997984;28;20034;-45
2022/08/12 04:01:06;;;;;;;2.33;1.83;;;15.50;86.00;;;15.35;67.77;97365.16;4998047;28;20072;-49
2022/08/12 04:03:51;;;;;;;2.35;1.90;;;15.50;86.60;;;15.32;67.72;97360.00;4993819;28;20036;-48
2022/08/12 04:06:28;;;;;;;3.90;2.22;;;15.40;86.50;;;15.30;67.52;97359.22;4999033;28;20120;-46
2022/08/12 04:08:57;;;;;;;2.10;1.80;;;15.40;86.50;;;15.30;67.23;97360.09;4983954;28;20088;-47
2022/08/12 04:14:21;;;;;;;2.70;2.00;;;15.40;86.80;;;15.19;68.66;97365.16;4999094;28;20037;-48
2022/08/12 04:16:50;;;;;;;3.75;2.15;;;15.30;87.30;;;15.15;68.43;97364.47;4998582;28;20382;-48
2022/08/12 04:19:17;;;;;;;3.10;2.08;;;15.30;87.30;;;15.15;69.22;97367.13;4995503;28;20068;-49
2022/08/12 04:21:44;;;;;;;4.03;1.80;;;15.30;87.80;;;15.13;68.78;97361.03;4995414;28;20041;-51
2022/08/12 04:24:11;;;;;;;2.63;1.83;;;15.20;87.60;;;15.11;69.72;97357.63;4996579;28;20535;-50
2022/08/12 04:26:40;;;;;;;1.85;1.70;;;15.20;88.20;;;15.08;70.51;97358.63;4996132;28;20501;-48
2022/08/12 04:29:09;;;;;;;5.72;2.00;;;15.20;88.80;;;15.05;71.01;97360.59;4978642;28;20934;-49
2022/08/12 04:31:41;;;;;;;2.83;2.10;;;15.20;89.10;;;15.03;70.82;97357.19;4997515;28;20044;-50
2022/08/12 04:34:09;;;;;;;3.37;2.27;;;15.20;89.10;;;14.99;71.33;97353.84;4989364;28;20022;-49
2022/08/12 04:36:38;;;;;;;2.20;1.90;;;15.10;89.40;;;15.01;71.40;97361.72;4996977;28;20026;-50
2022/08/12 04:39:06;;;;;;;3.90;2.03;;;15.10;89.60;;;15.02;71.32;97359.00;4979372;28;20043;-47
2022/08/12 04:41:33;;;;;;;3.58;2.15;;;15.10;89.60;;;14.98;72.51;97354.75;5001853;28;20454;-51
2022/08/12 04:43:59;;;;;;;2.20;1.60;;;15.10;90.10;;;14.99;72.28;97359.16;4995601;28;20134;-48
2022/08/12 04:46:25;;;;;;;2.90;2.03;;;15.20;90.10;;;15.01;72.20;97354.59;4996859;28;20039;-46
2022/08/12 04:48:52;;;;;;;2.65;1.80;;;15.20;90.10;;;15.04;71.83;97361.56;5002396;28;20101;-50
2022/08/12 04:51:20;;;;;;;5.78;2.03;;;15.20;90.10;;;15.04;72.20;97357.09;4997780;28;20045;-49
2022/08/12 04:53:47;;;;;;;3.60;1.90;;;15.20;90.10;;;15.06;72.82;97360.53;4992627;28;20033;-49
2022/08/12 04:56:14;;;;;;;4.10;1.83;;;15.20;90.30;;;15.10;72.19;97361.22;4997301;28;20173;-49
2022/08/12 04:58:40;;;;;;;3.03;1.80;;;15.20;90.10;;;15.13;71.81;97366.34;4997483;28;20036;-46
2022/08/12 05:01:06;;;;;;;2.92;1.85;;;15.30;90.10;;;15.15;71.71;97368.94;5001533;28;20060;-45
2022/08/12 05:03:40;;;;;;;3.15;1.70;;;15.30;90.00;;;15.18;72.09;97364.31;4994436;28;20039;-47
2022/08/12 05:06:07;;;;;;;2.08;1.60;;;15.30;90.10;;;15.21;71.65;97364.09;4983470;28;20022;-49
2022/08/12 05:08:34;;;;;;;3.75;2.05;;;15.30;90.10;;;15.27;71.13;97368.22;4998810;28;20034;-49
2022/08/12 05:11:00;;;;;;;3.13;1.75;;;15.40;90.00;;;15.30;71.47;97357.44;4997446;28;20033;-50
2022/08/12 05:13:32;;;;;;;2.78;1.90;;;15.50;90.10;;;15.39;72.07;97358.72;4999020;28;20406;-49
2022/08/12 05:15:57;;;;;;;5.60;2.03;;;15.50;90.20;;;15.46;70.99;97362.72;4985806;28;20022;-50
2022/08/12 05:18:23;;;;;;;2.45;1.90;;;15.60;89.90;;;15.57;70.37;97370.09;5001843;28;20041;-48
2022/08/12 05:20:49;;;;;;;2.00;1.77;;;15.70;89.30;;;15.67;70.18;97365.97;5001131;28;20445;-49
2022/08/12 05:23:19;;;;;;;2.78;2.00;;;15.80;89.10;;;15.79;69.18;97367.06;4999372;28;20116;-48
2022/08/12 05:25:48;;;;;;;2.83;1.92;;;16.00;88.60;;;15.92;68.68;97380.53;4985626;28;20540;-50
2022/08/12 05:28:15;;;;;;;2.88;2.00;;;16.10;88.20;;;16.02;68.61;97376.34;4998256;28;20029;-49
2022/08/12 05:30:42;;;;;;;3.53;1.80;;;16.20;88.10;;;16.11;67.82;97375.78;4999616;28;20164;-47
2022/08/12 05:33:11;;;;;;;3.63;2.03;;;16.30;87.60;;;16.06;67.28;97356.63;4997010;28;20571;-49
2022/08/12 05:35:41;;;;;;;2.85;1.98;;;16.40;87.30;;;16.28;66.77;97384.59;4981625;28;20037;-48
2022/08/12 05:40:55;;;;;;;4.30;2.22;;;16.50;86.00;;;16.38;64.86;97388.38;4996745;28;20126;-49
2022/08/12 05:43:21;;;;;;;2.55;2.00;;;16.60;85.30;;;16.43;64.82;97396.97;4985355;28;20455;-49
2022/08/12 05:45:48;;;;;;;2.78;2.25;;;16.60;85.30;;;16.44;65.06;97392.47;4999896;28;20381;-49
2022/08/12 05:48:15;;;;;;;2.72;1.73;;;16.60;85.40;;;16.56;64.89;97402.38;4997505;28;20041;-46
2022/08/12 05:50:42;;;;;;;3.40;2.08;;;16.70;85.50;;;16.63;64.17;97406.38;4998078;28;20076;-45
2022/08/12 05:53:08;;;;;;;5.75;2.60;;;16.80;85.00;;;16.62;63.33;97402.03;4981324;28;20512;-47
2022/08/12 05:55:35;;;;;;;3.33;1.80;;;16.80;84.50;;;16.76;63.59;97418.00;4999972;28;20065;-48
2022/08/12 05:58:01;;;;;;;3.75;2.30;;;16.90;84.50;;;16.86;63.31;97414.81;5001307;28;20205;-47
2022/08/12 06:00:30;;;;;;;4.25;2.30;;;17.00;84.40;;;16.96;63.08;97413.28;4997388;28;20101;-50
2022/08/12 06:03:00;;;;;;;3.67;2.00;;;17.10;84.20;;;17.06;62.18;97411.75;4994710;28;20022;-50
2022/08/12 06:05:34;;;;;;;3.60;2.53;;;17.30;84.60;;;17.16;62.05;97414.69;4996256;28;20022;-50
2022/08/12 06:08:05;;;;;;;2.70;2.10;;;17.30;83.40;;;17.24;61.41;97414.19;4983576;28;20037;-46
2022/08/12 06:10:38;;;;;;;2.55;2.03;;;17.40;83.00;;;17.31;61.21;97413.69;5000210;28;20034;-48
2022/08/12 06:13:06;;;;;;;7.47;2.53;;;17.50;82.70;;;17.42;60.95;97420.16;4998557;28;20062;-48
2022/08/12 06:15:36;;;;;;;5.03;2.63;;;17.60;82.80;;;17.50;59.79;97410.72;4997167;28;20030;-47
2022/08/12 06:18:06;;;;;;;4.18;2.40;;;17.70;82.00;;;17.61;60.10;97415.34;4995857;28;20022;-48
2022/08/12 06:20:32;;;;;;;3.53;2.15;;;17.80;82.00;;;17.70;58.84;97414.75;5002005;28;20520;-48
2022/08/12 06:22:58;;;;;;;3.22;2.05;;;17.90;81.10;;;17.80;58.54;97411.47;4996207;28;20444;-51
2022/08/12 06:25:27;;;;;;;4.07;2.40;;;18.00;80.90;;;17.95;58.87;97423.84;4999978;28;20034;-47
2022/08/12 06:27:55;;;;;;;2.85;2.22;;;18.10;81.20;;;18.07;58.78;97425.69;4999082;28;20022;-49
2022/08/12 06:30:21;;;;;;;2.28;1.90;;;18.20;81.10;;;18.18;57.59;97418.75;4981792;28;20100;-49
2022/08/12 06:32:48;;;;;;;3.83;2.10;;;18.30;80.30;;;18.30;56.83;97420.59;4997970;28;20017;-47
2022/08/12 06:35:16;;;;;;;3.10;2.28;;;18.40;79.60;;;18.41;56.05;97412.72;4996816;28;20908;-48
2022/08/12 06:37:54;;;;;;;3.88;1.80;;;18.60;79.20;;;18.53;56.23;97415.50;4997525;28;20023;-49
2022/08/12 06:42:46;;;;;;;3.33;2.17;;;18.60;79.10;;;18.63;56.44;97413.91;4997654;28;20042;-50
2022/08/12 06:43:06;;;;;;;7.20;2.20;;;18.80;79.30;;;18.72;56.29;97409.72;4998896;28;20502;-50
2022/08/12 06:45:33;;;;;;;2.63;1.88;;;18.80;79.20;;;18.87;55.61;97419.38;5000036;28;20022;-50
2022/08/12 06:48:07;;;;;;;2.20;1.90;;;19.00;78.70;;;19.00;54.88;97417.53;4996227;28;20044;-51
2022/08/12 06:50:33;;;;;;;3.63;2.05;;;19.10;78.10;;;19.13;52.91;97409.53;4996268;28;20033;-48
2022/08/12 06:52:59;;;;;;;2.97;1.88;;;19.20;76.90;;;19.29;52.59;97414.63;4995038;28;20397;-47
2022/08/12 06:55:25;;;;;;;4.40;1.70;;;19.40;76.00;;;19.35;51.69;97398.13;4998829;28;20021;-50
2022/08/12 06:57:57;;;;;;;4.97;2.33;;;19.60;75.30;;;19.65;50.81;97413.75;4998104;28;20104;-47
2022/08/12 07:00:26;;;;;;;3.30;2.08;;;19.70;74.90;;;19.76;49.00;97412.16;5000770;28;20083;-46
2022/08/12 07:02:55;;;;;;;2.85;1.80;;;19.90;73.00;;;19.93;48.19;97410.88;4995590;28;20038;-48
2022/08/12 07:05:24;;;;;;;2.85;1.98;;;20.00;71.90;;;20.13;48.49;97417.41;4998140;28;20481;-47
2022/08/12 07:08:02;;;;;;;3.35;1.92;;;20.20;72.20;;;20.33;48.33;97423.94;4994413;28;20049;-47
2022/08/12 07:10:32;;;;;;;2.00;1.67;;;20.40;72.00;;;20.51;47.83;97425.22;4996563;28;20026;-49
2022/08/12 07:13:00;;;;;;;4.22;2.17;;;20.50;71.50;;;20.75;46.22;97429.69;4993621;28;20062;-49
2022/08/12 07:15:28;;;;;;;6.07;2.88;;;20.70;69.90;;;20.88;45.84;97426.91;4998703;28;20109;-48
2022/08/12 07:18:10;;;;;;;5.65;2.40;;;20.90;68.90;;;20.99;45.64;97432.25;4997408;28;20516;-48
2022/08/12 07:20:40;;;;;;;4.27;1.90;;;21.00;69.20;;;21.17;45.55;97421.91;4994777;28;20026;-47
2022/08/12 07:23:05;;;;;;;2.88;2.10;;;21.20;68.90;;;21.19;45.16;97414.56;4996252;28;20281;-50
2022/08/12 07:25:33;;;;;;;3.15;1.98;;;21.30;68.30;;;21.46;45.10;97433.03;4993094;28;20040;-51
2022/08/12 07:28:04;;;;;;;4.32;2.30;;;21.40;67.90;;;21.57;44.15;97436.66;4999807;28;20108;-49
2022/08/12 07:30:38;;;;;;;2.90;2.13;;;21.50;67.00;;;21.64;43.57;97428.00;4997130;28;20030;-49
2022/08/12 07:33:07;;;;;;;5.22;2.08;;;21.60;66.40;;;21.71;43.93;97422.94;4984388;28;20349;-47
2022/08/12 07:35:44;;;;;;;3.80;1.95;;;21.60;66.40;;;21.83;43.72;97430.00;4992179;28;20029;-50
2022/08/12 07:38:25;;;;;;;3.70;1.90;;;21.70;66.50;;;21.92;42.93;97423.88;5027187;23;20044;-47
2022/08/12 07:41:00;;;;;;;3.78;1.92;;;21.80;65.40;;;22.00;42.84;97422.38;5038277;28;20063;-52
2022/08/12 07:43:26;;;;;;;2.60;1.83;;;21.90;65.40;;;22.12;43.02;97421.34;5037831;28;20074;-49
2022/08/12 07:45:53;;;;;;;2.22;1.70;;;22.00;65.40;;;22.14;42.31;97419.41;5039175;28;20033;-47
2022/08/12 07:48:22;;;;;;;3.55;2.10;;;22.10;64.90;;;22.21;42.46;97428.63;5038543;28;20036;-48
2022/08/12 07:50:48;;;;;;;3.17;2.00;;;22.10;64.90;;;22.29;42.66;97420.00;5037167;28;20029;-53
2022/08/12 07:53:14;;;;;;;3.47;1.92;;;22.20;64.80;;;22.36;42.14;97420.31;5039037;28;20017;-47
2022/08/12 07:55:40;;;;;;;4.05;1.70;;;22.30;64.30;;;22.48;41.31;97424.63;5037618;28;20043;-49
2022/08/12 07:58:05;;;;;;;3.30;1.77;;;22.40;63.70;;;22.56;41.67;97418.59;5038299;28;20032;-50
2022/08/12 08:00:34;;;;;;;7.05;2.13;;;22.50;63.60;;;22.64;41.41;97424.19;5038874;28;20503;-52
2022/08/12 08:03:01;;;;;;;2.60;2.00;;;22.50;63.20;;;22.74;40.89;97417.03;5035593;28;20115;-47
2022/08/12 08:06:15;;;;;;;4.78;2.03;;;22.60;62.60;;;22.91;40.74;97414.72;5039274;28;20037;-46
2022/08/12 08:08:26;;;;;;;5.80;2.00;;;22.80;62.20;;;23.02;40.27;97409.25;5035482;28;20036;-47
2022/08/12 08:13:44;;;;;;;5.22;2.15;;;23.00;61.40;;;23.20;40.04;97409.50;5037058;28;20036;-47
2022/08/12 08:16:14;;;;;;;2.78;1.80;;;23.10;61.50;;;23.27;39.54;97402.59;5038129;28;20214;-47
2022/08/12 08:18:41;;;;;;;3.17;1.98;;;23.20;61.00;;;23.38;39.52;97407.88;5038060;28;20029;-47
2022/08/12 08:21:09;;;;;;;3.28;2.10;;;23.30;60.50;;;23.50;38.99;97410.47;5038070;28;20029;-50
2022/08/12 08:26:21;;;;;;;3.15;1.83;;;23.40;59.40;;;23.47;38.47;97408.88;5038319;28;20500;-51
2022/08/12 08:28:47;;;;;;;5.35;2.00;;;23.40;59.30;;;23.53;39.08;97407.50;5038260;28;20087;-46
2022/08/12 08:31:13;;;;;;;2.92;1.90;;;23.40;59.60;;;23.60;38.18;97401.41;5037509;28;20112;-49
2022/08/12 08:33:42;;;;;;;6.47;2.10;;;23.50;59.50;;;23.72;38.33;97415.59;5038785;28;20116;-51
2022/08/12 08:36:09;;;;;;;4.82;2.20;;;23.60;59.50;;;23.80;37.35;97415.78;5042235;28;20099;-49
2022/08/12 08:38:35;;;;;;;3.67;1.85;;;23.70;58.80;;;23.92;37.80;97421.03;5043295;28;20030;-48
2022/08/12 08:43:46;;;;;;;2.90;2.00;;;23.90;58.30;;;24.08;37.67;97410.56;5043062;28;20398;-47
2022/08/12 08:46:13;;;;;;;2.33;1.65;;;24.00;58.30;;;24.14;36.39;97404.63;5042400;28;20508;-47
2022/08/12 08:48:39;;;;;;;2.47;1.98;;;24.00;56.70;;;24.17;36.58;97403.47;5041639;28;20016;-47
2022/08/12 08:51:05;;;;;;;3.45;1.92;;;24.00;56.90;;;24.19;36.63;97405.06;5042465;28;20071;-46
2022/08/12 08:53:31;;;;;;;4.55;1.80;;;24.10;57.20;;;24.30;36.95;97401.38;5041389;28;20028;-47
2022/08/12 08:55:58;;;;;;;3.25;1.83;;;24.20;57.30;;;24.45;35.69;97411.72;5043488;28;20437;-47
2022/08/12 08:58:25;;;;;;;2.50;1.95;;;24.30;56.10;;;24.50;34.40;97407.59;5042174;28;20125;-46
2022/08/12 09:00:50;;;;;;;5.35;1.77;;;24.40;55.00;;;24.53;34.82;97404.63;5042226;28;20033;-47
2022/08/12 09:03:17;;;;;;;1.98;1.67;;;24.40;54.90;;;24.63;33.51;97411.84;5023840;28;20404;-49
2022/08/12 09:05:43;;;;;;;3.22;2.13;;;24.50;53.80;;;24.64;34.05;97400.94;5041578;28;20107;-47
2022/08/12 09:08:10;;;;;;;3.00;1.52;;;24.50;53.80;;;24.67;34.02;97413.25;5042380;28;20054;-49
2022/08/12 09:10:37;;;;;;;3.67;2.00;;;24.60;53.90;;;24.69;34.17;97405.88;5042622;28;20026;-46
2022/08/12 09:15:49;;;;;;;4.35;2.17;;;24.60;54.20;;;24.86;34.16;97401.59;5040791;28;20487;-46
2022/08/12 09:18:17;;;;;;;2.95;1.88;;;24.70;53.70;;;24.95;33.98;97396.16;5039293;28;20029;-47
2022/08/12 09:20:43;;;;;;;3.45;1.70;;;24.80;53.80;;;25.03;33.16;97417.00;5039229;28;20025;-48
2022/08/12 09:23:11;;;;;;;2.08;1.55;;;24.90;53.40;;;25.03;33.13;97399.97;5041007;28;20047;-46
2022/08/12 09:25:39;;;;;;;2.25;1.67;;;24.90;53.40;;;25.08;33.15;97398.50;5040691;28;20453;-49
2022/08/12 09:28:08;;;;;;;3.40;1.77;;;25.00;52.80;;;25.14;32.85;97407.84;5040767;28;20029;-47
2022/08/12 09:30:36;;;;;;;3.45;1.88;;;25.00;52.50;;;25.10;32.85;97387.56;5025308;28;20036;-47
2022/08/12 09:33:02;;;;;;;4.60;2.00;;;25.00;52.50;;;25.17;32.41;97385.97;5038137;28;20036;-46
2022/08/12 09:35:32;;;;;;;3.72;1.80;;;25.00;51.60;;;25.19;31.93;97383.13;5040099;28;20024;-49
2022/08/12 09:38:03;;;;;;;3.72;1.80;;;25.10;50.90;;;25.30;31.87;97391.06;5038706;28;20024;-46
2022/08/12 09:40:30;;;;;;;3.50;1.98;;;25.20;51.20;;;25.31;31.51;97381.97;5039423;28;20025;-46
2022/08/12 09:45:46;;;;;;;3.20;1.70;;;25.20;50.70;;;25.28;31.84;97375.00;5040936;28;20283;-46
2022/08/12 09:48:15;;;;;;;1.90;1.70;;;25.10;50.90;;;25.34;31.65;97374.44;5038173;28;20083;-48
2022/08/12 09:50:44;;;;;;;2.10;1.55;;;25.20;50.60;;;25.46;31.30;97363.44;5041584;28;20036;-50
2022/08/12 09:53:25;;;;;;;2.13;1.73;;;25.30;50.70;;;25.58;31.95;97369.47;5038341;28;20057;-48
2022/08/12 09:55:56;;;;;;;2.80;1.80;;;25.40;51.10;;;25.56;31.00;97355.28;5039580;28;20024;-51
2022/08/12 09:58:27;;;;;;;2.67;1.65;;;25.50;50.50;;;25.62;31.84;97362.75;5039971;28;20023;-47
2022/08/12 10:01:03;;;;;;;3.20;1.60;;;25.50;50.60;;;25.76;31.24;97356.00;5041010;28;20547;-52
2022/08/12 10:03:32;;;;;;;3.22;1.73;;;25.60;50.50;;;25.84;30.76;97356.06;5040930;28;20036;-50
2022/08/12 10:06:00;;;;;;;4.68;1.75;;;25.70;49.60;;;25.87;30.70;97361.16;5038377;28;20053;-47
2022/08/12 10:08:29;;;;;;;1.98;1.60;;;25.80;49.50;;;25.81;31.07;97346.41;5039694;28;20032;-51
2022/08/12 10:13:41;;;;;;;2.47;1.88;;;25.70;50.40;;;25.79;30.89;97343.03;5024300;28;20124;-49
2022/08/12 10:16:21;;;;;;;4.13;2.10;;;25.70;49.50;;;25.87;31.33;97340.38;5038820;28;20021;-49
2022/08/12 10:18:53;;;;;;;1.95;1.73;;;25.70;50.20;;;25.94;30.72;97343.38;5040483;28;20421;-49
2022/08/12 10:21:21;;;;;;;2.45;1.52;;;25.80;49.80;;;25.96;31.06;97329.69;5038739;28;20039;-47
2022/08/12 10:23:49;;;;;;;1.80;1.70;;;25.90;49.80;;;26.02;30.02;97335.34;5039211;28;20193;-47
2022/08/12 10:31:49;;;;;;;3.60;1.80;;;26.00;48.90;;;26.07;30.90;97330.28;5039763;28;20468;-47
2022/08/12 10:34:17;;;;;;;2.83;1.98;;;26.00;49.10;;;26.02;30.66;97320.97;5037047;28;20432;-47
2022/08/12 10:36:43;;;;;;;2.00;1.77;;;25.90;49.30;;;26.00;30.85;97321.13;5043086;28;20078;-49
2022/08/12 10:39:15;;;;;;;2.83;1.95;;;25.90;49.30;;;26.04;31.32;97319.81;5037602;28;20032;-47
2022/08/12 10:44:27;;;;;;;4.45;1.77;;;26.00;50.40;;;26.24;31.13;97323.19;5038063;28;20446;-47
2022/08/12 10:46:55;;;;;;;2.22;1.65;;;26.10;49.70;;;26.28;31.12;97324.56;5039826;28;20021;-48
2022/08/12 10:49:27;;;;;;;2.00;1.55;;;26.10;49.70;;;26.28;30.62;97316.44;5021418;28;20143;-49
2022/08/12 10:51:54;;;;;;;3.75;1.90;;;26.20;49.30;;;26.26;30.62;97318.47;5039751;28;20091;-47
2022/08/12 10:54:21;;;;;;;4.13;1.70;;;26.20;49.60;;;26.25;30.34;97314.06;5038512;28;20801;-47
2022/08/12 10:56:48;;;;;;;3.72;1.77;;;26.20;48.80;;;26.35;30.26;97319.38;5038346;28;20021;-48
2022/08/12 10:59:16;;;;;;;5.63;1.70;;;26.20;49.20;;;26.43;30.45;97316.75;5038220;28;20105;-46
2022/08/12 11:01:42;;;;;;;2.30;1.75;;;26.30;49.10;;;26.47;29.88;97317.28;5039291;28;20029;-47
2022/08/12 11:04:12;;;;;;;2.58;1.95;;;26.30;48.30;;;26.61;29.77;97315.84;5020584;28;20044;-47
2022/08/12 11:06:47;;;;;;;2.17;1.60;;;26.50;48.30;;;26.58;29.58;97299.94;5041483;28;20052;-47
2022/08/12 11:09:17;;;;;;;2.20;1.70;;;26.50;47.70;;;26.59;29.69;97307.03;5039758;28;20086;-48
2022/08/12 11:11:48;;;;;;;3.15;1.73;;;26.50;47.60;;;26.51;29.44;97297.00;5041795;28;20488;-47
2022/08/12 11:14:16;;;;;;;4.78;1.90;;;26.50;47.80;;;26.56;28.98;97304.63;5037760;28;20029;-49
2022/08/12 11:16:43;;;;;;;2.30;1.65;;;26.50;47.00;;;26.55;29.13;97301.09;5021199;28;20017;-51
2022/08/12 11:19:10;;;;;;;2.20;1.83;;;26.50;47.20;;;26.58;29.79;97299.94;5037142;28;20017;-50
2022/08/12 11:21:36;;;;;;;2.58;1.73;;;26.50;47.70;;;26.53;29.35;97277.94;5020643;28;20406;-47
2022/08/12 11:24:02;;;;;;;1.88;1.70;;;26.50;47.10;;;26.59;29.19;97288.94;5037238;28;20029;-50
2022/08/12 11:26:28;;;;;;;4.25;1.70;;;26.50;47.30;;;26.64;28.73;97285.78;5037570;28;20159;-49
2022/08/12 11:28:54;;;;;;;2.28;1.52;;;26.60;46.90;;;26.65;28.55;97287.50;5038952;28;20379;-48
2022/08/12 11:31:20;;;;;;;3.15;1.65;;;26.60;46.00;;;26.54;28.40;97280.47;5037926;28;20025;-51
2022/08/12 11:33:48;;;;;;;2.05;1.70;;;26.50;45.80;;;26.44;28.54;97287.84;5038138;28;20030;-49
2022/08/12 11:36:14;;;;;;;3.83;1.70;;;26.40;46.30;;;26.43;28.78;97283.44;5037688;28;20036;-50
2022/08/12 11:38:39;;;;;;;2.50;1.60;;;26.40;46.50;;;26.52;29.00;97284.34;5037702;28;20496;-50
2022/08/12 11:41:05;;;;;;;5.35;1.60;;;26.50;46.80;;;26.59;28.24;97288.94;5038283;28;20094;-51
2022/08/12 11:43:32;;;;;;;2.85;1.52;;;26.50;46.00;;;26.56;28.18;97291.09;5035880;28;20042;-49
2022/08/12 11:45:58;;;;;;;5.30;1.70;;;26.50;45.80;;;26.52;27.73;97290.56;5041973;28;20031;-50
2022/08/12 11:48:24;;;;;;;2.30;1.70;;;26.50;45.40;;;26.40;27.79;97287.31;5038035;28;20033;-50
2022/08/12 11:50:50;;;;;;;2.58;1.70;;;26.40;45.00;;;26.34;27.20;97277.13;5036968;28;20029;-47
2022/08/12 11:53:16;;;;;;;2.20;1.60;;;26.30;44.70;;;26.32;28.04;97262.91;5036681;28;20061;-51
2022/08/12 11:55:42;;;;;;;1.67;1.30;;;26.30;45.10;;;26.43;28.37;97270.78;5036512;28;20056;-50
2022/08/12 11:58:08;;;;;;;3.03;1.50;;;26.40;45.70;;;26.48;27.08;97263.00;5038868;28;20021;-51
2022/08/12 12:00:35;;;;;;;5.65;1.35;;;26.40;44.50;;;26.48;27.15;97273.81;5036702;28;20079;-50
2022/08/12 12:03:01;;;;;;;2.30;1.52;;;26.40;44.30;;;26.54;27.50;97266.97;5038202;28;20036;-51
2022/08/12 12:05:26;;;;;;;5.43;1.55;;;26.40;44.70;;;26.56;26.88;97255.94;5036357;28;20021;-51
2022/08/12 12:07:52;;;;;;;5.75;1.70;;;26.50;44.30;;;26.55;27.31;97256.97;5037197;28;20068;-50
2022/08/12 12:10:19;;;;;;;3.17;1.60;;;26.60;44.70;;;26.71;27.30;97262.50;5043160;28;20045;-52
2022/08/12 12:12:45;;;;;;;3.90;1.45;;;26.60;44.30;;;26.76;27.40;97272.84;5041521;28;20032;-48
2022/08/12 12:15:12;;;;;;;5.00;1.40;;;26.70;44.50;;;26.81;27.74;97265.06;5040113;28;20026;-48
2022/08/12 12:17:40;;;;;;;2.03;1.55;;;26.70;45.00;;;26.91;27.20;97265.78;5042047;28;20567;-47
2022/08/12 12:20:10;;;;;;;2.10;1.50;;;26.80;44.10;;;27.11;27.05;97263.66;5041808;28;20127;-50
2022/08/12 12:22:38;;;;;;;2.00;1.50;;;27.00;44.30;;;27.18;26.99;97248.47;5041612;28;20040;-49